sensor_id;sensor_type;location;lat;lon;timestamp;temperature;humidity
32839;DHT22;19182;41.820;12.808;2024-01-06T00:00:02;11.70;99.90
32839;DHT22;19182;41.820;12.808;2024-01-06T00:02:29;11.70;99.90
32839;DHT22;19182;41.820;12.808;2024-01-06T00:04:56;11.70;99.90
32839;DHT22;19182;41.820;12.808;2024-01-06T00:07:22;11.60;99.90
32839;DHT22;19182;41.820;12.808;2024-01-06T00:09:47;11.60;99.90
32839;DHT22;19182;41.820;12.808;2024-01-06T00:12:13;11.60;99.90
32839;DHT22;19182;41.820;12.808;2024-01-06T00:17:11;11.60;99.90
32839;DHT22;19182;41.820;12.808;2024-01-06T00:22:03;11.60;99.90
32839;DHT22;19182;41.820;12.808;2024-01-06T00:24:29;11.60;99.90
32839;DHT22;19182;41.820;12.808;2024-01-06T00:26:55;11.60;99.90
32839;DHT22;19182;41.820;12.808;2024-01-06T00:29:20;11.60;99.90
32839;DHT22;19182;41.820;12.808;2024-01-06T00:34:12;11.60;99.90
32839;DHT22;19182;41.820;12.808;2024-01-06T00:36:39;11.60;99.90
32839;DHT22;19182;41.820;12.808;2024-01-06T00:39:06;11.60;99.90
32839;DHT22;19182;41.820;12.808;2024-01-06T00:41:32;11.70;99.90
32839;DHT22;19182;41.820;12.808;2024-01-06T00:43:59;11.60;99.90
32839;DHT22;19182;41.820;12.808;2024-01-06T00:46:25;11.70;99.90
32839;DHT22;19182;41.820;12.808;2024-01-06T00:53:44;11.80;99.90
32839;DHT22;19182;41.820;12.808;2024-01-06T00:56:10;11.70;99.90
32839;DHT22;19182;41.820;12.808;2024-01-06T00:58:36;11.70;99.90
32839;DHT22;19182;41.820;12.808;2024-01-06T01:01:03;11.70;99.90
32839;DHT22;19182;41.820;12.808;2024-01-06T01:03:29;11.70;99.90
32839;DHT22;19182;41.820;12.808;2024-01-06T01:05:54;11.70;99.90
32839;DHT22;19182;41.820;12.808;2024-01-06T01:08:20;11.60;99.90
32839;DHT22;19182;41.820;12.808;2024-01-06T01:13:13;11.70;99.90
32839;DHT22;19182;41.820;12.808;2024-01-06T01:18:05;11.70;99.90
32839;DHT22;19182;41.820;12.808;2024-01-06T01:20:32;11.60;99.90
32839;DHT22;19182;41.820;12.808;2024-01-06T01:25:24;11.70;99.90
32839;DHT22;19182;41.820;12.808;2024-01-06T01:32:43;11.50;99.90
32839;DHT22;19182;41.820;12.808;2024-01-06T01:35:11;11.50;99.90
32839;DHT22;19182;41.820;12.808;2024-01-06T01:37:36;11.40;99.90
32839;DHT22;19182;41.820;12.808;2024-01-06T01:40:04;11.40;99.90
32839;DHT22;19182;41.820;12.808;2024-01-06T01:42:30;11.40;99.90
32839;DHT22;19182;41.820;12.808;2024-01-06T01:47:24;11.40;99.90
32839;DHT22;19182;41.820;12.808;2024-01-06T01:49:50;11.40;99.90
32839;DHT22;19182;41.820;12.808;2024-01-06T01:54:42;11.30;99.90
32839;DHT22;19182;41.820;12.808;2024-01-06T01:59:36;11.30;99.90
32839;DHT22;19182;41.820;12.808;2024-01-06T02:02:02;11.30;99.90
32839;DHT22;19182;41.820;12.808;2024-01-06T02:16:46;11.20;99.90
32839;DHT22;19182;41.820;12.808;2024-01-06T02:19:13;11.20;99.90
32839;DHT22;19182;41.820;12.808;2024-01-06T02:21:42;11.20;99.90
32839;DHT22;19182;41.820;12.808;2024-01-06T02:24:09;11.20;99.90
32839;DHT22;19182;41.820;12.808;2024-01-06T02:26:36;11.10;99.90
32839;DHT22;19182;41.820;12.808;2024-01-06T02:31:28;11.10;99.90
32839;DHT22;19182;41.820;12.808;2024-01-06T02:46:07;11.10;99.90
32839;DHT22;19182;41.820;12.808;2024-01-06T02:53:25;11.10;99.90
32839;DHT22;19182;41.820;12.808;2024-01-06T03:00:42;11.10;99.90
32839;DHT22;19182;41.820;12.808;2024-01-06T03:03:09;11.10;99.90
32839;DHT22;19182;41.820;12.808;2024-01-06T03:08:03;11.10;99.90
32839;DHT22;19182;41.820;12.808;2024-01-06T03:12:56;11.10;99.90
32839;DHT22;19182;41.820;12.808;2024-01-06T03:15:22;11.00;99.90
32839;DHT22;19182;41.820;12.808;2024-01-06T03:20:15;11.10;99.90
32839;DHT22;19182;41.820;12.808;2024-01-06T03:30:00;11.10;99.90
32839;DHT22;19182;41.820;12.808;2024-01-06T03:32:26;11.10;99.90
32839;DHT22;19182;41.820;12.808;2024-01-06T03:39:47;11.00;99.90
32839;DHT22;19182;41.820;12.808;2024-01-06T03:42:13;11.10;99.90
32839;DHT22;19182;41.820;12.808;2024-01-06T03:47:05;11.10;99.90
32839;DHT22;19182;41.820;12.808;2024-01-06T03:51:59;11.10;99.90
32839;DHT22;19182;41.820;12.808;2024-01-06T03:54:25;11.10;99.90
32839;DHT22;19182;41.820;12.808;2024-01-06T03:59:18;11.10;99.90
32839;DHT22;19182;41.820;12.808;2024-01-06T04:01:44;11.10;99.90
32839;DHT22;19182;41.820;12.808;2024-01-06T04:04:10;11.10;99.90
32839;DHT22;19182;41.820;12.808;2024-01-06T04:06:37;11.10;99.90
32839;DHT22;19182;41.820;12.808;2024-01-06T04:09:03;11.20;99.90
32839;DHT22;19182;41.820;12.808;2024-01-06T04:11:29;11.10;99.90
32839;DHT22;19182;41.820;12.808;2024-01-06T04:13:54;11.20;99.90
32839;DHT22;19182;41.820;12.808;2024-01-06T04:21:16;11.20;99.90
32839;DHT22;19182;41.820;12.808;2024-01-06T04:23:43;11.10;99.90
32839;DHT22;19182;41.820;12.808;2024-01-06T04:26:09;11.20;99.90
32839;DHT22;19182;41.820;12.808;2024-01-06T04:31:03;11.20;99.90
32839;DHT22;19182;41.820;12.808;2024-01-06T04:35:56;11.10;99.90
32839;DHT22;19182;41.820;12.808;2024-01-06T04:38:23;11.10;99.90
32839;DHT22;19182;41.820;12.808;2024-01-06T04:45:42;11.10;99.90
32839;DHT22;19182;41.820;12.808;2024-01-06T04:50:37;11.10;99.90
32839;DHT22;19182;41.820;12.808;2024-01-06T04:53:04;11.10;99.90
32839;DHT22;19182;41.820;12.808;2024-01-06T05:00:24;11.10;99.90
32839;DHT22;19182;41.820;12.808;2024-01-06T05:02:51;11.10;99.90
32839;DHT22;19182;41.820;12.808;2024-01-06T05:05:17;11.10;99.90
32839;DHT22;19182;41.820;12.808;2024-01-06T05:07:43;11.10;99.90
32839;DHT22;19182;41.820;12.808;2024-01-06T05:10:09;11.10;99.90
32839;DHT22;19182;41.820;12.808;2024-01-06T05:22:21;11.10;99.90
32839;DHT22;19182;41.820;12.808;2024-01-06T05:27:13;11.10;99.90
32839;DHT22;19182;41.820;12.808;2024-01-06T05:29:38;11.10;99.90
32839;DHT22;19182;41.820;12.808;2024-01-06T05:32:04;11.10;99.90
32839;DHT22;19182;41.820;12.808;2024-01-06T05:36:57;11.20;99.90
32839;DHT22;19182;41.820;12.808;2024-01-06T05:41:50;11.10;99.90
32839;DHT22;19182;41.820;12.808;2024-01-06T05:44:16;11.10;99.90
32839;DHT22;19182;41.820;12.808;2024-01-06T05:49:09;11.10;99.90
32839;DHT22;19182;41.820;12.808;2024-01-06T05:51:36;11.10;99.90
32839;DHT22;19182;41.820;12.808;2024-01-06T05:54:03;11.20;99.90
32839;DHT22;19182;41.820;12.808;2024-01-06T05:56:29;11.20;99.90
32839;DHT22;19182;41.820;12.808;2024-01-06T06:01:22;11.20;99.90
32839;DHT22;19182;41.820;12.808;2024-01-06T06:03:48;11.10;99.90
32839;DHT22;19182;41.820;12.808;2024-01-06T06:08:42;11.30;99.90
32839;DHT22;19182;41.820;12.808;2024-01-06T06:11:08;11.20;99.90
32839;DHT22;19182;41.820;12.808;2024-01-06T06:13:38;11.20;99.90
32839;DHT22;19182;41.820;12.808;2024-01-06T06:16:11;11.20;99.90
32839;DHT22;19182;41.820;12.808;2024-01-06T06:21:07;11.20;99.90
32839;DHT22;19182;41.820;12.808;2024-01-06T06:23:38;11.20;99.90
32839;DHT22;19182;41.820;12.808;2024-01-06T06:26:06;11.20;99.90
32839;DHT22;19182;41.820;12.808;2024-01-06T06:28:32;11.30;99.90
32839;DHT22;19182;41.820;12.808;2024-01-06T06:30:58;11.30;99.90
32839;DHT22;19182;41.820;12.808;2024-01-06T06:33:26;11.20;99.90
32839;DHT22;19182;41.820;12.808;2024-01-06T06:38:19;11.30;99.90
32839;DHT22;19182;41.820;12.808;2024-01-06T06:40:44;11.30;99.90
32839;DHT22;19182;41.820;12.808;2024-01-06T06:43:10;11.30;99.90
32839;DHT22;19182;41.820;12.808;2024-01-06T06:45:38;11.30;99.90
32839;DHT22;19182;41.820;12.808;2024-01-06T06:48:04;11.30;99.90
32839;DHT22;19182;41.820;12.808;2024-01-06T06:50:30;11.20;99.90
32839;DHT22;19182;41.820;12.808;2024-01-06T06:52:56;11.30;99.90
32839;DHT22;19182;41.820;12.808;2024-01-06T06:57:49;11.20;99.90
32839;DHT22;19182;41.820;12.808;2024-01-06T07:00:15;11.20;99.90
32839;DHT22;19182;41.820;12.808;2024-01-06T07:02:41;11.20;99.90
32839;DHT22;19182;41.820;12.808;2024-01-06T07:10:04;11.20;99.90
32839;DHT22;19182;41.820;12.808;2024-01-06T07:12:31;11.20;99.90
32839;DHT22;19182;41.820;12.808;2024-01-06T07:19:53;11.20;99.90
32839;DHT22;19182;41.820;12.808;2024-01-06T07:22:19;11.20;99.90
32839;DHT22;19182;41.820;12.808;2024-01-06T07:24:47;11.00;99.90
32839;DHT22;19182;41.820;12.808;2024-01-06T07:27:14;11.20;99.90
32839;DHT22;19182;41.820;12.808;2024-01-06T07:29:40;11.20;99.90
32839;DHT22;19182;41.820;12.808;2024-01-06T07:39:30;11.10;99.90
32839;DHT22;19182;41.820;12.808;2024-01-06T07:41:57;11.20;99.90
32839;DHT22;19182;41.820;12.808;2024-01-06T07:44:24;11.20;99.90
32839;DHT22;19182;41.820;12.808;2024-01-06T07:49:18;11.20;99.90
32839;DHT22;19182;41.820;12.808;2024-01-06T07:56:37;11.10;99.90
32839;DHT22;19182;41.820;12.808;2024-01-06T08:01:32;11.10;99.90
32839;DHT22;19182;41.820;12.808;2024-01-06T08:04:00;11.10;99.90
32839;DHT22;19182;41.820;12.808;2024-01-06T08:08:52;11.10;99.90
32839;DHT22;19182;41.820;12.808;2024-01-06T08:13:45;11.10;99.90
32839;DHT22;19182;41.820;12.808;2024-01-06T08:18:37;11.00;99.90
32839;DHT22;19182;41.820;12.808;2024-01-06T08:21:04;11.00;99.90
32839;DHT22;19182;41.820;12.808;2024-01-06T08:25:56;11.00;99.90
32839;DHT22;19182;41.820;12.808;2024-01-06T08:35:43;11.40;99.90
32839;DHT22;19182;41.820;12.808;2024-01-06T08:40:37;11.00;99.90
32839;DHT22;19182;41.820;12.808;2024-01-06T08:47:56;11.10;99.90
32839;DHT22;19182;41.820;12.808;2024-01-06T08:52:48;12.20;99.90
32839;DHT22;19182;41.820;12.808;2024-01-06T08:55:14;11.20;99.90
32839;DHT22;19182;41.820;12.808;2024-01-06T08:57:39;11.20;99.90
32839;DHT22;19182;41.820;12.808;2024-01-06T09:04:58;11.30;99.90
32839;DHT22;19182;41.820;12.808;2024-01-06T09:07:24;11.30;99.90
32839;DHT22;19182;41.820;12.808;2024-01-06T09:14:42;11.40;99.90
32839;DHT22;19182;41.820;12.808;2024-01-06T09:22:02;11.40;99.90
32839;DHT22;19182;41.820;12.808;2024-01-06T09:26:57;11.50;99.90
32839;DHT22;19182;41.820;12.808;2024-01-06T09:34:15;11.70;99.90
32839;DHT22;19182;41.820;12.808;2024-01-06T09:43:59;11.80;99.90
32839;DHT22;19182;41.820;12.808;2024-01-06T09:51:20;11.90;99.90
32839;DHT22;19182;41.820;12.808;2024-01-06T09:54:04;11.90;99.90
32839;DHT22;19182;41.820;12.808;2024-01-06T09:56:33;12.10;99.90
32839;DHT22;19182;41.820;12.808;2024-01-06T10:01:25;12.00;99.90
32839;DHT22;19182;41.820;12.808;2024-01-06T10:03:51;12.00;99.90
32839;DHT22;19182;41.820;12.808;2024-01-06T10:06:17;12.00;99.90
32839;DHT22;19182;41.820;12.808;2024-01-06T10:08:44;12.10;99.90
32839;DHT22;19182;41.820;12.808;2024-01-06T10:13:37;12.40;99.90
32839;DHT22;19182;41.820;12.808;2024-01-06T10:16:06;12.40;99.90
32839;DHT22;19182;41.820;12.808;2024-01-06T10:23:29;12.60;99.90
32839;DHT22;19182;41.820;12.808;2024-01-06T10:28:22;12.50;99.90
32839;DHT22;19182;41.820;12.808;2024-01-06T10:30:55;12.60;99.90
32839;DHT22;19182;41.820;12.808;2024-01-06T10:33:22;12.50;99.90
32839;DHT22;19182;41.820;12.808;2024-01-06T10:38:17;12.50;99.90
32839;DHT22;19182;41.820;12.808;2024-01-06T10:41:02;12.50;99.90
32839;DHT22;19182;41.820;12.808;2024-01-06T10:46:09;12.50;99.90
32839;DHT22;19182;41.820;12.808;2024-01-06T10:48:40;12.50;99.90
32839;DHT22;19182;41.820;12.808;2024-01-06T10:51:09;12.40;99.90
32839;DHT22;19182;41.820;12.808;2024-01-06T10:53:37;12.40;99.90
32839;DHT22;19182;41.820;12.808;2024-01-06T10:58:32;12.50;99.90
32839;DHT22;19182;41.820;12.808;2024-01-06T11:01:01;12.60;99.90
32839;DHT22;19182;41.820;12.808;2024-01-06T11:03:28;12.60;99.90
32839;DHT22;19182;41.820;12.808;2024-01-06T11:05:59;12.70;99.90
32839;DHT22;19182;41.820;12.808;2024-01-06T11:08:25;12.60;99.90
32839;DHT22;19182;41.820;12.808;2024-01-06T11:10:54;12.60;99.90
32839;DHT22;19182;41.820;12.808;2024-01-06T11:13:25;12.70;99.90
32839;DHT22;19182;41.820;12.808;2024-01-06T11:15:52;12.90;99.90
32839;DHT22;19182;41.820;12.808;2024-01-06T11:18:38;12.90;99.90
32839;DHT22;19182;41.820;12.808;2024-01-06T11:21:17;13.00;99.90
32839;DHT22;19182;41.820;12.808;2024-01-06T11:23:43;13.20;99.90
32839;DHT22;19182;41.820;12.808;2024-01-06T11:26:10;13.20;99.90
32839;DHT22;19182;41.820;12.808;2024-01-06T11:28:47;13.50;99.90
32839;DHT22;19182;41.820;12.808;2024-01-06T11:31:13;14.70;99.90
32839;DHT22;19182;41.820;12.808;2024-01-06T11:33:43;16.60;99.90
32839;DHT22;19182;41.820;12.808;2024-01-06T11:36:10;17.80;99.90
32839;DHT22;19182;41.820;12.808;2024-01-06T11:38:40;18.40;99.90
32839;DHT22;19182;41.820;12.808;2024-01-06T11:41:08;19.20;99.90
32839;DHT22;19182;41.820;12.808;2024-01-06T11:43:38;19.30;99.90
32839;DHT22;19182;41.820;12.808;2024-01-06T11:46:06;18.10;99.90
32839;DHT22;19182;41.820;12.808;2024-01-06T11:48:34;18.00;99.90
32839;DHT22;19182;41.820;12.808;2024-01-06T11:51:01;18.00;99.90
32839;DHT22;19182;41.820;12.808;2024-01-06T11:53:28;17.90;99.90
32839;DHT22;19182;41.820;12.808;2024-01-06T11:55:56;18.40;99.90
32839;DHT22;19182;41.820;12.808;2024-01-06T11:58:22;19.00;99.90
32839;DHT22;19182;41.820;12.808;2024-01-06T12:00:57;19.10;99.90
32839;DHT22;19182;41.820;12.808;2024-01-06T12:03:24;20.40;99.90
32839;DHT22;19182;41.820;12.808;2024-01-06T12:06:01;21.60;99.90
32839;DHT22;19182;41.820;12.808;2024-01-06T12:08:28;22.50;99.90
32839;DHT22;19182;41.820;12.808;2024-01-06T12:11:04;23.20;99.90
32839;DHT22;19182;41.820;12.808;2024-01-06T12:13:33;24.10;99.90
32839;DHT22;19182;41.820;12.808;2024-01-06T12:15:59;23.30;99.90
32839;DHT22;19182;41.820;12.808;2024-01-06T12:18:26;23.50;99.90
32839;DHT22;19182;41.820;12.808;2024-01-06T12:20:53;23.20;99.90
32839;DHT22;19182;41.820;12.808;2024-01-06T12:23:31;22.90;99.90
32839;DHT22;19182;41.820;12.808;2024-01-06T12:25:57;23.70;99.90
32839;DHT22;19182;41.820;12.808;2024-01-06T12:28:23;24.30;99.90
32839;DHT22;19182;41.820;12.808;2024-01-06T12:30:49;22.10;99.90
32839;DHT22;19182;41.820;12.808;2024-01-06T12:33:14;20.60;99.90
32839;DHT22;19182;41.820;12.808;2024-01-06T12:35:40;20.10;99.90
32839;DHT22;19182;41.820;12.808;2024-01-06T12:38:08;20.10;99.90
32839;DHT22;19182;41.820;12.808;2024-01-06T12:40:37;19.10;99.90
32839;DHT22;19182;41.820;12.808;2024-01-06T12:43:06;19.30;99.90
32839;DHT22;19182;41.820;12.808;2024-01-06T12:45:32;19.10;99.90
32839;DHT22;19182;41.820;12.808;2024-01-06T12:47:58;18.70;99.90
32839;DHT22;19182;41.820;12.808;2024-01-06T12:50:24;18.10;99.90
32839;DHT22;19182;41.820;12.808;2024-01-06T12:52:50;18.10;99.90
32839;DHT22;19182;41.820;12.808;2024-01-06T12:55:16;17.90;99.90
32839;DHT22;19182;41.820;12.808;2024-01-06T12:57:43;16.90;99.90
32839;DHT22;19182;41.820;12.808;2024-01-06T13:00:10;16.20;99.90
32839;DHT22;19182;41.820;12.808;2024-01-06T13:02:38;15.70;99.90
32839;DHT22;19182;41.820;12.808;2024-01-06T13:05:05;15.10;99.90
32839;DHT22;19182;41.820;12.808;2024-01-06T13:07:31;14.70;99.90
32839;DHT22;19182;41.820;12.808;2024-01-06T13:09:57;14.30;99.90
32839;DHT22;19182;41.820;12.808;2024-01-06T13:12:24;13.90;99.90
32839;DHT22;19182;41.820;12.808;2024-01-06T13:14:50;13.90;99.90
32839;DHT22;19182;41.820;12.808;2024-01-06T13:17:17;13.70;99.90
32839;DHT22;19182;41.820;12.808;2024-01-06T13:19:42;13.50;99.90
32839;DHT22;19182;41.820;12.808;2024-01-06T13:22:08;13.50;99.90
32839;DHT22;19182;41.820;12.808;2024-01-06T13:24:35;13.50;99.90
32839;DHT22;19182;41.820;12.808;2024-01-06T13:27:00;13.60;99.90
32839;DHT22;19182;41.820;12.808;2024-01-06T13:29:28;13.70;99.90
32839;DHT22;19182;41.820;12.808;2024-01-06T13:31:56;13.50;99.90
32839;DHT22;19182;41.820;12.808;2024-01-06T13:34:22;13.40;99.90
32839;DHT22;19182;41.820;12.808;2024-01-06T13:36:48;13.40;99.90
32839;DHT22;19182;41.820;12.808;2024-01-06T13:39:15;13.20;99.90
32839;DHT22;19182;41.820;12.808;2024-01-06T13:41:46;13.20;99.90
32839;DHT22;19182;41.820;12.808;2024-01-06T13:44:15;13.10;99.90
32839;DHT22;19182;41.820;12.808;2024-01-06T13:46:41;13.00;99.90
32839;DHT22;19182;41.820;12.808;2024-01-06T13:49:12;13.00;99.90
32839;DHT22;19182;41.820;12.808;2024-01-06T13:51:39;12.80;99.90
32839;DHT22;19182;41.820;12.808;2024-01-06T13:54:05;12.80;99.90
32839;DHT22;19182;41.820;12.808;2024-01-06T13:56:31;12.90;99.90
32839;DHT22;19182;41.820;12.808;2024-01-06T13:58:57;12.90;99.90
32839;DHT22;19182;41.820;12.808;2024-01-06T14:01:24;12.80;99.90
32839;DHT22;19182;41.820;12.808;2024-01-06T14:03:51;12.70;99.90
32839;DHT22;19182;41.820;12.808;2024-01-06T14:06:27;12.60;99.90
32839;DHT22;19182;41.820;12.808;2024-01-06T14:11:28;12.70;99.90
32839;DHT22;19182;41.820;12.808;2024-01-06T14:13:57;12.60;99.90
32839;DHT22;19182;41.820;12.808;2024-01-06T14:16:23;12.50;99.90
32839;DHT22;19182;41.820;12.808;2024-01-06T14:18:49;12.40;99.90
32839;DHT22;19182;41.820;12.808;2024-01-06T14:21:15;12.30;99.90
32839;DHT22;19182;41.820;12.808;2024-01-06T14:23:45;12.30;99.90
32839;DHT22;19182;41.820;12.808;2024-01-06T14:26:11;12.20;99.90
32839;DHT22;19182;41.820;12.808;2024-01-06T14:28:37;11.50;99.90
32839;DHT22;19182;41.820;12.808;2024-01-06T14:31:03;12.10;99.90
32839;DHT22;19182;41.820;12.808;2024-01-06T14:33:29;12.10;99.90
32839;DHT22;19182;41.820;12.808;2024-01-06T14:35:56;12.00;99.90
32839;DHT22;19182;41.820;12.808;2024-01-06T14:38:22;12.10;99.90
32839;DHT22;19182;41.820;12.808;2024-01-06T14:40:50;12.10;99.90
32839;DHT22;19182;41.820;12.808;2024-01-06T14:43:18;12.10;99.90
32839;DHT22;19182;41.820;12.808;2024-01-06T14:45:45;12.10;99.90
32839;DHT22;19182;41.820;12.808;2024-01-06T14:48:12;12.00;99.90
32839;DHT22;19182;41.820;12.808;2024-01-06T14:50:39;12.00;99.90
32839;DHT22;19182;41.820;12.808;2024-01-06T14:53:05;12.00;99.90
32839;DHT22;19182;41.820;12.808;2024-01-06T14:55:32;11.90;99.90
32839;DHT22;19182;41.820;12.808;2024-01-06T14:57:58;12.00;99.90
32839;DHT22;19182;41.820;12.808;2024-01-06T15:00:24;11.90;99.90
32839;DHT22;19182;41.820;12.808;2024-01-06T15:02:51;11.80;99.90
32839;DHT22;19182;41.820;12.808;2024-01-06T15:05:18;11.80;99.90
32839;DHT22;19182;41.820;12.808;2024-01-06T15:07:44;11.80;99.90
32839;DHT22;19182;41.820;12.808;2024-01-06T15:10:10;11.80;99.90
32839;DHT22;19182;41.820;12.808;2024-01-06T15:12:39;11.70;99.90
32839;DHT22;19182;41.820;12.808;2024-01-06T15:15:05;11.70;99.90
32839;DHT22;19182;41.820;12.808;2024-01-06T15:17:34;11.80;99.90
32839;DHT22;19182;41.820;12.808;2024-01-06T15:20:01;11.80;99.90
32839;DHT22;19182;41.820;12.808;2024-01-06T15:22:28;11.80;99.90
32839;DHT22;19182;41.820;12.808;2024-01-06T15:24:54;11.80;99.90
32839;DHT22;19182;41.820;12.808;2024-01-06T15:27:21;11.70;99.90
32839;DHT22;19182;41.820;12.808;2024-01-06T15:29:48;11.60;99.90
32839;DHT22;19182;41.820;12.808;2024-01-06T15:34:40;11.50;99.90
32839;DHT22;19182;41.820;12.808;2024-01-06T15:37:07;11.50;99.90
32839;DHT22;19182;41.820;12.808;2024-01-06T15:39:33;11.40;99.90
32839;DHT22;19182;41.820;12.808;2024-01-06T15:41:58;11.30;99.90
32839;DHT22;19182;41.820;12.808;2024-01-06T15:44:26;11.30;99.90
32839;DHT22;19182;41.820;12.808;2024-01-06T15:46:52;11.30;99.90
32839;DHT22;19182;41.820;12.808;2024-01-06T15:49:19;11.30;99.90
32839;DHT22;19182;41.820;12.808;2024-01-06T15:51:45;11.20;99.90
32839;DHT22;19182;41.820;12.808;2024-01-06T15:54:11;11.20;99.90
32839;DHT22;19182;41.820;12.808;2024-01-06T15:56:37;11.10;99.90
32839;DHT22;19182;41.820;12.808;2024-01-06T15:59:02;11.10;99.90
32839;DHT22;19182;41.820;12.808;2024-01-06T16:01:28;11.00;99.90
32839;DHT22;19182;41.820;12.808;2024-01-06T16:03:54;11.00;99.90
32839;DHT22;19182;41.820;12.808;2024-01-06T16:06:20;11.00;99.90
32839;DHT22;19182;41.820;12.808;2024-01-06T16:08:47;11.00;99.90
32839;DHT22;19182;41.820;12.808;2024-01-06T16:11:13;10.90;99.90
32839;DHT22;19182;41.820;12.808;2024-01-06T16:13:38;10.80;99.90
32839;DHT22;19182;41.820;12.808;2024-01-06T16:16:04;10.80;99.90
32839;DHT22;19182;41.820;12.808;2024-01-06T16:18:32;10.80;99.90
32839;DHT22;19182;41.820;12.808;2024-01-06T16:20:58;10.80;99.90
32839;DHT22;19182;41.820;12.808;2024-01-06T16:23:27;10.80;99.90
32839;DHT22;19182;41.820;12.808;2024-01-06T16:25:53;11.00;99.90
32839;DHT22;19182;41.820;12.808;2024-01-06T16:28:19;11.00;99.90
32839;DHT22;19182;41.820;12.808;2024-01-06T16:30:46;11.00;99.90
32839;DHT22;19182;41.820;12.808;2024-01-06T16:33:12;10.90;99.90
32839;DHT22;19182;41.820;12.808;2024-01-06T16:38:11;10.80;99.90
32839;DHT22;19182;41.820;12.808;2024-01-06T16:40:38;10.80;99.90
32839;DHT22;19182;41.820;12.808;2024-01-06T16:43:05;10.80;99.90
32839;DHT22;19182;41.820;12.808;2024-01-06T16:45:32;10.70;99.90
32839;DHT22;19182;41.820;12.808;2024-01-06T16:47:58;10.70;99.90
32839;DHT22;19182;41.820;12.808;2024-01-06T16:50:24;10.60;99.90
32839;DHT22;19182;41.820;12.808;2024-01-06T16:52:52;10.60;99.90
32839;DHT22;19182;41.820;12.808;2024-01-06T16:57:46;10.60;99.90
32839;DHT22;19182;41.820;12.808;2024-01-06T17:00:13;10.50;99.90
32839;DHT22;19182;41.820;12.808;2024-01-06T17:02:38;10.50;99.90
32839;DHT22;19182;41.820;12.808;2024-01-06T17:05:06;10.40;99.90
32839;DHT22;19182;41.820;12.808;2024-01-06T17:07:35;10.30;99.90
32839;DHT22;19182;41.820;12.808;2024-01-06T17:10:02;10.20;99.90
32839;DHT22;19182;41.820;12.808;2024-01-06T17:12:29;10.10;99.90
32839;DHT22;19182;41.820;12.808;2024-01-06T17:14:55;10.10;99.90
32839;DHT22;19182;41.820;12.808;2024-01-06T17:17:21;10.10;99.90
32839;DHT22;19182;41.820;12.808;2024-01-06T17:19:47;10.00;99.90
32839;DHT22;19182;41.820;12.808;2024-01-06T17:22:14;9.90;99.90
32839;DHT22;19182;41.820;12.808;2024-01-06T17:24:40;10.00;99.90
32839;DHT22;19182;41.820;12.808;2024-01-06T17:27:06;10.00;99.90
32839;DHT22;19182;41.820;12.808;2024-01-06T17:29:32;9.90;99.90
32839;DHT22;19182;41.820;12.808;2024-01-06T17:31:59;9.90;99.90
32839;DHT22;19182;41.820;12.808;2024-01-06T17:34:26;9.90;99.90
32839;DHT22;19182;41.820;12.808;2024-01-06T17:36:53;10.00;99.90
32839;DHT22;19182;41.820;12.808;2024-01-06T17:39:20;9.90;99.90
32839;DHT22;19182;41.820;12.808;2024-01-06T17:41:47;9.70;99.90
32839;DHT22;19182;41.820;12.808;2024-01-06T17:44:22;9.60;99.90
32839;DHT22;19182;41.820;12.808;2024-01-06T17:46:48;9.60;99.90
32839;DHT22;19182;41.820;12.808;2024-01-06T17:49:15;9.70;99.90
32839;DHT22;19182;41.820;12.808;2024-01-06T17:51:40;9.70;99.90
32839;DHT22;19182;41.820;12.808;2024-01-06T17:54:06;9.70;99.90
32839;DHT22;19182;41.820;12.808;2024-01-06T17:56:33;9.70;99.90
32839;DHT22;19182;41.820;12.808;2024-01-06T17:58:58;9.70;99.90
32839;DHT22;19182;41.820;12.808;2024-01-06T18:01:27;9.80;99.90
32839;DHT22;19182;41.820;12.808;2024-01-06T18:03:54;9.70;99.90
32839;DHT22;19182;41.820;12.808;2024-01-06T18:06:20;9.70;99.90
32839;DHT22;19182;41.820;12.808;2024-01-06T18:08:46;9.80;99.90
32839;DHT22;19182;41.820;12.808;2024-01-06T18:11:12;10.60;99.90
32839;DHT22;19182;41.820;12.808;2024-01-06T18:13:38;9.80;99.90
32839;DHT22;19182;41.820;12.808;2024-01-06T18:16:04;9.80;99.90
32839;DHT22;19182;41.820;12.808;2024-01-06T18:18:31;9.80;99.90
32839;DHT22;19182;41.820;12.808;2024-01-06T18:20:57;9.90;99.90
32839;DHT22;19182;41.820;12.808;2024-01-06T18:23:24;9.90;99.90
32839;DHT22;19182;41.820;12.808;2024-01-06T18:25:50;10.00;99.90
32839;DHT22;19182;41.820;12.808;2024-01-06T18:28:17;9.90;99.90
32839;DHT22;19182;41.820;12.808;2024-01-06T18:30:50;9.60;99.90
32839;DHT22;19182;41.820;12.808;2024-01-06T18:33:16;9.70;99.90
32839;DHT22;19182;41.820;12.808;2024-01-06T18:35:42;9.80;99.90
32839;DHT22;19182;41.820;12.808;2024-01-06T18:38:13;9.80;99.90
32839;DHT22;19182;41.820;12.808;2024-01-06T18:43:07;9.70;99.90
32839;DHT22;19182;41.820;12.808;2024-01-06T18:45:34;9.70;99.90
32839;DHT22;19182;41.820;12.808;2024-01-06T18:48:00;9.80;99.90
32839;DHT22;19182;41.820;12.808;2024-01-06T18:50:28;9.70;99.90
32839;DHT22;19182;41.820;12.808;2024-01-06T18:52:53;9.70;99.90
32839;DHT22;19182;41.820;12.808;2024-01-06T18:55:19;9.70;99.90
32839;DHT22;19182;41.820;12.808;2024-01-06T18:57:46;9.70;99.90
32839;DHT22;19182;41.820;12.808;2024-01-06T19:00:13;7.70;99.90
32839;DHT22;19182;41.820;12.808;2024-01-06T19:02:44;10.00;99.90
32839;DHT22;19182;41.820;12.808;2024-01-06T19:05:12;10.00;99.90
32839;DHT22;19182;41.820;12.808;2024-01-06T19:07:38;9.90;99.90
32839;DHT22;19182;41.820;12.808;2024-01-06T19:10:07;9.90;99.90
32839;DHT22;19182;41.820;12.808;2024-01-06T19:12:33;9.90;99.90
32839;DHT22;19182;41.820;12.808;2024-01-06T19:15:00;9.90;99.90
32839;DHT22;19182;41.820;12.808;2024-01-06T19:17:27;9.90;99.90
32839;DHT22;19182;41.820;12.808;2024-01-06T19:19:53;10.00;99.90
32839;DHT22;19182;41.820;12.808;2024-01-06T19:22:18;10.10;99.90
32839;DHT22;19182;41.820;12.808;2024-01-06T19:24:48;10.10;99.90
32839;DHT22;19182;41.820;12.808;2024-01-06T19:27:15;10.00;99.90
32839;DHT22;19182;41.820;12.808;2024-01-06T19:29:41;9.90;99.90
32839;DHT22;19182;41.820;12.808;2024-01-06T19:32:08;9.80;99.90
32839;DHT22;19182;41.820;12.808;2024-01-06T19:34:34;9.80;99.90
32839;DHT22;19182;41.820;12.808;2024-01-06T19:37:00;9.70;99.90
32839;DHT22;19182;41.820;12.808;2024-01-06T19:39:30;9.80;99.90
32839;DHT22;19182;41.820;12.808;2024-01-06T19:41:56;9.80;99.90
32839;DHT22;19182;41.820;12.808;2024-01-06T19:44:23;9.70;99.90